KLGF

Details ICAO KLGF
Name LAGUNA AAF
Region United States
Timezone America/Phoenix (UTC-7.0)
Plans Departing 1
Arriving 3
Stats Elevation 422 ft / 129 m (AMSL)
Location 32.864500° -114.393031°
Runways 2
Magnetic Variation 10.856° E
Sunrise 2018-05-21 12:36:09 UTC / 2018-05-21 05:36:09 Local
Sunset 2018-05-22 02:35:05 UTC / 2018-05-21 19:35:05 Local
Advertisement - Login to hide

Runways

ID Width Length Bearing (true) Bearing (mag) Surface Threshold Offset Overrun Length
06 100 ft / 30 m 5,993 ft / 1,827 m 75.89° 65.03° Asphalt 0 ft / 0 m 0 ft / 0 m
18 150 ft / 46 m 6,078 ft / 1,853 m 190.65° 179.79° Asphalt 0 ft / 0 m 0 ft / 0 m
24 100 ft / 30 m 5,993 ft / 1,827 m 255.90° 245.04° Asphalt 0 ft / 0 m 0 ft / 0 m
36 150 ft / 46 m 6,078 ft / 1,853 m 10.65° 359.79° Asphalt 0 ft / 0 m 0 ft / 0 m

Map

Weather


0- 5 10 15 20 25 30 35+ Temperature / ° C

Clouds and Precipitation
Forecast for 2018-05-21 18:00 UTC. Updated 6 hours ago

Ground ~20,000 ft ~40,000 ft Winds

METAR

KLGF 212155Z AUTO 20010KT 10SM CLR 32/02 A2967

TAF

Not found

Frequencies

Unicom 126.20 MHz CTAF
Departure 120.00 MHz YUMA DEP
Approach 125.55 MHz YUMA APP
Warning: Do not use this data for real-world aviation or navigation. No guarantee of current accuracy is given.